sensor_id;sensor_type;location;lat;lon;timestamp;pressure;altitude;pressure_sealevel;temperature;humidity
51359;BME280;37448;51.588;7.248;2023-01-19T12:41:39;99897.34;;;1.43;88.76
51359;BME280;37448;51.588;7.248;2023-01-19T12:43:40;99892.22;;;1.41;89.14
51359;BME280;37448;51.588;7.248;2023-01-19T12:45:40;99895.63;;;1.37;89.31
51359;BME280;37448;51.588;7.248;2023-01-19T12:47:49;99899.91;;;1.37;89.41
51359;BME280;37448;51.588;7.248;2023-01-19T12:49:55;99909.34;;;1.33;89.75
51359;BME280;37448;51.588;7.248;2023-01-19T12:54:30;99904.16;;;1.27;90.14
51359;BME280;37448;51.588;7.248;2023-01-19T12:56:34;99900.72;;;1.25;90.19
51359;BME280;37448;51.588;7.248;2023-01-19T12:58:35;99912.72;;;1.29;90.09
51359;BME280;37448;51.588;7.248;2023-01-19T13:00:40;99906.75;;;1.28;90.45
51359;BME280;37448;51.588;7.248;2023-01-19T13:02:43;99911.00;;;1.28;90.67
51359;BME280;37448;51.588;7.248;2023-01-19T13:06:00;99905.88;;;1.28;90.47
51359;BME280;37448;51.588;7.248;2023-01-19T13:13:20;99904.19;;;1.33;91.40
51359;BME280;37448;51.588;7.248;2023-01-19T13:15:34;99907.63;;;1.35;91.39
51359;BME280;37448;51.588;7.248;2023-01-19T13:17:48;99904.22;;;1.39;91.26
51359;BME280;37448;51.588;7.248;2023-01-19T13:20:43;99900.81;;;1.48;91.70
51359;BME280;37448;51.588;7.248;2023-01-19T13:22:48;99906.84;;;1.55;91.42
51359;BME280;37448;51.588;7.248;2023-01-19T13:25:12;99907.75;;;1.66;91.47
51359;BME280;37448;51.588;7.248;2023-01-19T13:27:13;99906.03;;;1.68;91.53
51359;BME280;37448;51.588;7.248;2023-01-19T13:29:28;99909.50;;;1.72;91.35
51359;BME280;37448;51.588;7.248;2023-01-19T13:31:34;99911.19;;;1.71;91.27
51359;BME280;37448;51.588;7.248;2023-01-19T13:33:55;99910.34;;;1.76;91.02
51359;BME280;37448;51.588;7.248;2023-01-19T13:35:57;99911.19;;;1.75;91.19
51359;BME280;37448;51.588;7.248;2023-01-19T13:37:58;99914.63;;;1.74;91.23
51359;BME280;37448;51.588;7.248;2023-01-19T13:40:00;99912.03;;;1.64;91.24
51359;BME280;37448;51.588;7.248;2023-01-19T13:42:04;99912.06;;;1.69;91.18
51359;BME280;37448;51.588;7.248;2023-01-19T13:44:12;99914.59;;;1.63;90.81
51359;BME280;37448;51.588;7.248;2023-01-19T13:46:14;99914.59;;;1.61;91.32
51359;BME280;37448;51.588;7.248;2023-01-19T13:48:18;99923.13;;;1.54;91.34
51359;BME280;37448;51.588;7.248;2023-01-19T13:50:29;99923.13;;;1.51;91.30
51359;BME280;37448;51.588;7.248;2023-01-19T13:52:30;99933.41;;;1.48;91.60
51359;BME280;37448;51.588;7.248;2023-01-19T13:54:30;99931.69;;;1.43;91.55
51359;BME280;37448;51.588;7.248;2023-01-19T13:56:30;99933.38;;;1.41;91.39
51359;BME280;37448;51.588;7.248;2023-01-19T13:58:31;99935.94;;;1.35;91.41
51359;BME280;37448;51.588;7.248;2023-01-19T14:00:32;99939.34;;;1.36;91.33
51359;BME280;37448;51.588;7.248;2023-01-19T14:02:32;99941.94;;;1.37;91.57
51359;BME280;37448;51.588;7.248;2023-01-19T14:04:33;99941.09;;;1.35;91.75
51359;BME280;37448;51.588;7.248;2023-01-19T14:06:37;99945.31;;;1.30;91.47
51359;BME280;37448;51.588;7.248;2023-01-19T14:08:38;99941.03;;;1.32;91.60
51359;BME280;37448;51.588;7.248;2023-01-19T14:10:39;99942.78;;;1.32;91.99
51359;BME280;37448;51.588;7.248;2023-01-19T14:12:42;99947.03;;;1.31;92.02
51359;BME280;37448;51.588;7.248;2023-01-19T14:14:44;99950.47;;;1.30;92.12
51359;BME280;37448;51.588;7.248;2023-01-19T14:16:45;99955.66;;;1.33;92.22
51359;BME280;37448;51.588;7.248;2023-01-19T14:18:58;99954.75;;;1.31;92.04
51359;BME280;37448;51.588;7.248;2023-01-19T14:21:05;99953.03;;;1.28;92.05
51359;BME280;37448;51.588;7.248;2023-01-19T14:25:43;99957.31;;;1.23;91.83
51359;BME280;37448;51.588;7.248;2023-01-19T14:27:43;99960.75;;;1.25;92.09
51359;BME280;37448;51.588;7.248;2023-01-19T14:29:45;99958.19;;;1.25;92.18
51359;BME280;37448;51.588;7.248;2023-01-19T14:31:48;99960.75;;;1.22;92.02
51359;BME280;37448;51.588;7.248;2023-01-19T14:33:51;99965.03;;;1.23;92.07
51359;BME280;37448;51.588;7.248;2023-01-19T14:35:52;99962.47;;;1.23;92.32
51359;BME280;37448;51.588;7.248;2023-01-19T14:37:52;99965.00;;;1.22;92.33
51359;BME280;37448;51.588;7.248;2023-01-19T14:42:33;99962.44;;;1.22;92.08
51359;BME280;37448;51.588;7.248;2023-01-19T14:44:37;99967.56;;;1.20;92.14
51359;BME280;37448;51.588;7.248;2023-01-19T14:46:44;99966.75;;;1.21;92.44
51359;BME280;37448;51.588;7.248;2023-01-19T14:48:49;99971.00;;;1.21;91.89
51359;BME280;37448;51.588;7.248;2023-01-19T14:50:59;99971.84;;;1.20;91.64
51359;BME280;37448;51.588;7.248;2023-01-19T14:53:02;99973.56;;;1.18;91.67
51359;BME280;37448;51.588;7.248;2023-01-19T14:55:04;99974.44;;;1.20;92.08
51359;BME280;37448;51.588;7.248;2023-01-19T14:57:11;99971.00;;;1.18;91.65
51359;BME280;37448;51.588;7.248;2023-01-19T14:59:12;99975.25;;;1.14;91.22
51359;BME280;37448;51.588;7.248;2023-01-19T15:01:13;99977.84;;;1.19;91.37
51359;BME280;37448;51.588;7.248;2023-01-19T15:03:13;99973.56;;;1.18;91.53
51359;BME280;37448;51.588;7.248;2023-01-19T15:05:14;99976.97;;;1.18;92.23
51359;BME280;37448;51.588;7.248;2023-01-19T15:07:18;99976.97;;;1.18;92.03
51359;BME280;37448;51.588;7.248;2023-01-19T15:09:19;99974.41;;;1.17;91.91
51359;BME280;37448;51.588;7.248;2023-01-19T15:11:26;99973.53;;;1.14;92.33
51359;BME280;37448;51.588;7.248;2023-01-19T15:13:26;99979.56;;;1.17;92.04
51359;BME280;37448;51.588;7.248;2023-01-19T15:15:32;99976.97;;;1.15;92.24
51359;BME280;37448;51.588;7.248;2023-01-19T15:17:32;99979.53;;;1.13;92.47
51359;BME280;37448;51.588;7.248;2023-01-19T15:19:34;99985.53;;;1.09;92.39
51359;BME280;37448;51.588;7.248;2023-01-19T15:21:34;99986.31;;;1.05;92.28
51359;BME280;37448;51.588;7.248;2023-01-19T15:23:34;99984.59;;;1.01;91.97
51359;BME280;37448;51.588;7.248;2023-01-19T15:25:35;99991.44;;;0.99;92.68
51359;BME280;37448;51.588;7.248;2023-01-19T15:27:35;99997.41;;;0.96;92.45
51359;BME280;37448;51.588;7.248;2023-01-19T15:29:36;99995.66;;;0.91;92.57
51359;BME280;37448;51.588;7.248;2023-01-19T15:31:39;99994.78;;;0.85;92.40
51359;BME280;37448;51.588;7.248;2023-01-19T15:33:39;99999.84;;;0.79;91.92
51359;BME280;37448;51.588;7.248;2023-01-19T15:35:41;99997.25;;;0.76;92.14
51359;BME280;37448;51.588;7.248;2023-01-19T15:37:42;99996.34;;;0.71;92.21
51359;BME280;37448;51.588;7.248;2023-01-19T15:39:42;99998.03;;;0.66;92.11
51359;BME280;37448;51.588;7.248;2023-01-19T15:41:42;100000.56;;;0.63;91.97
51359;BME280;37448;51.588;7.248;2023-01-19T15:43:43;100006.56;;;0.62;91.86
51359;BME280;37448;51.588;7.248;2023-01-19T15:45:45;100006.47;;;0.55;91.96
51359;BME280;37448;51.588;7.248;2023-01-19T15:47:47;100011.59;;;0.52;92.36
51359;BME280;37448;51.588;7.248;2023-01-19T15:49:47;100009.84;;;0.48;92.25
51359;BME280;37448;51.588;7.248;2023-01-19T15:51:48;100014.97;;;0.45;92.16
51359;BME280;37448;51.588;7.248;2023-01-19T15:53:48;100004.66;;;0.42;92.27
51359;BME280;37448;51.588;7.248;2023-01-19T15:55:51;100012.34;;;0.40;92.31
51359;BME280;37448;51.588;7.248;2023-01-19T15:57:52;100017.44;;;0.37;92.32
51359;BME280;37448;51.588;7.248;2023-01-19T15:59:52;100019.97;;;0.33;92.44
51359;BME280;37448;51.588;7.248;2023-01-19T16:01:52;100017.38;;;0.30;92.48
51359;BME280;37448;51.588;7.248;2023-01-19T16:03:53;100014.78;;;0.26;92.66
51359;BME280;37448;51.588;7.248;2023-01-19T16:05:53;100020.69;;;0.19;92.56
51359;BME280;37448;51.588;7.248;2023-01-19T16:07:53;100024.91;;;0.14;92.42
51359;BME280;37448;51.588;7.248;2023-01-19T16:09:54;100030.00;;;0.11;92.57
51359;BME280;37448;51.588;7.248;2023-01-19T16:11:54;100038.53;;;0.10;92.70
51359;BME280;37448;51.588;7.248;2023-01-19T16:13:56;100031.66;;;0.06;92.49
51359;BME280;37448;51.588;7.248;2023-01-19T16:16:03;100038.47;;;0.02;92.51
51359;BME280;37448;51.588;7.248;2023-01-19T16:18:04;100033.28;;;-0.01;92.76
51359;BME280;37448;51.588;7.248;2023-01-19T16:20:05;100042.72;;;-0.02;92.86
51359;BME280;37448;51.588;7.248;2023-01-19T16:22:07;100034.97;;;-0.05;92.71
51359;BME280;37448;51.588;7.248;2023-01-19T16:24:08;100045.25;;;-0.05;92.63
51359;BME280;37448;51.588;7.248;2023-01-19T16:26:30;100044.31;;;-0.08;92.84
51359;BME280;37448;51.588;7.248;2023-01-19T16:28:34;100045.25;;;-0.05;92.74
51359;BME280;37448;51.588;7.248;2023-01-19T16:30:35;100046.94;;;-0.07;92.85
51359;BME280;37448;51.588;7.248;2023-01-19T16:32:35;100052.91;;;-0.08;92.72
51359;BME280;37448;51.588;7.248;2023-01-19T16:34:35;100052.03;;;-0.10;92.84
51359;BME280;37448;51.588;7.248;2023-01-19T16:36:38;100052.88;;;-0.11;93.07
51359;BME280;37448;51.588;7.248;2023-01-19T16:38:41;100055.44;;;-0.11;93.12
51359;BME280;37448;51.588;7.248;2023-01-19T16:40:45;100056.31;;;-0.09;93.26
51359;BME280;37448;51.588;7.248;2023-01-19T16:42:45;100062.38;;;-0.04;93.47
51359;BME280;37448;51.588;7.248;2023-01-19T16:44:46;100059.00;;;0.01;93.81
51359;BME280;37448;51.588;7.248;2023-01-19T16:46:46;100065.88;;;0.03;93.75
51359;BME280;37448;51.588;7.248;2023-01-19T16:48:49;100056.44;;;0.04;93.88
51359;BME280;37448;51.588;7.248;2023-01-19T16:51:04;100071.00;;;0.05;94.12
51359;BME280;37448;51.588;7.248;2023-01-19T16:53:05;100072.75;;;0.06;94.04
51359;BME280;37448;51.588;7.248;2023-01-19T16:55:06;100073.63;;;0.06;93.50
51359;BME280;37448;51.588;7.248;2023-01-19T16:57:09;100070.19;;;0.09;93.74
51359;BME280;37448;51.588;7.248;2023-01-19T16:59:11;100077.91;;;0.09;93.92
51359;BME280;37448;51.588;7.248;2023-01-19T17:01:14;100077.88;;;0.06;93.68
51359;BME280;37448;51.588;7.248;2023-01-19T17:03:14;100079.59;;;0.07;93.59
51359;BME280;37448;51.588;7.248;2023-01-19T17:05:15;100082.16;;;0.07;93.33
51359;BME280;37448;51.588;7.248;2023-01-19T17:07:15;100088.19;;;0.07;93.44
51359;BME280;37448;51.588;7.248;2023-01-19T17:09:15;100083.88;;;0.06;93.18
51359;BME280;37448;51.588;7.248;2023-01-19T17:11:18;100088.16;;;0.06;93.75
51359;BME280;37448;51.588;7.248;2023-01-19T17:13:22;100087.25;;;0.02;93.59
51359;BME280;37448;51.588;7.248;2023-01-19T17:15:22;100092.38;;;0.01;93.38
51359;BME280;37448;51.588;7.248;2023-01-19T17:17:23;100094.94;;;0.01;93.39
51359;BME280;37448;51.588;7.248;2023-01-19T17:19:23;100088.06;;;-0.01;93.78
51359;BME280;37448;51.588;7.248;2023-01-19T17:21:23;100095.75;;;-0.02;93.09
51359;BME280;37448;51.588;7.248;2023-01-19T17:23:24;100100.03;;;-0.03;93.00
51359;BME280;37448;51.588;7.248;2023-01-19T17:25:24;100104.28;;;-0.05;93.29
51359;BME280;37448;51.588;7.248;2023-01-19T17:27:24;100099.09;;;-0.09;93.15
51359;BME280;37448;51.588;7.248;2023-01-19T17:29:25;100094.78;;;-0.12;93.45
51359;BME280;37448;51.588;7.248;2023-01-19T17:31:25;100099.81;;;-0.18;93.33
51359;BME280;37448;51.588;7.248;2023-01-19T17:33:26;100099.81;;;-0.18;92.95
51359;BME280;37448;51.588;7.248;2023-01-19T17:35:26;100099.81;;;-0.18;93.23
51359;BME280;37448;51.588;7.248;2023-01-19T17:37:26;100101.50;;;-0.20;93.04
51359;BME280;37448;51.588;7.248;2023-01-19T17:39:27;100109.19;;;-0.22;93.23
51359;BME280;37448;51.588;7.248;2023-01-19T17:41:33;100112.56;;;-0.24;93.25
51359;BME280;37448;51.588;7.248;2023-01-19T17:43:34;100112.53;;;-0.27;93.01
51359;BME280;37448;51.588;7.248;2023-01-19T17:45:35;100117.63;;;-0.29;93.49
51359;BME280;37448;51.588;7.248;2023-01-19T17:47:37;100115.94;;;-0.28;93.44
51359;BME280;37448;51.588;7.248;2023-01-19T17:49:37;100112.50;;;-0.29;93.59
51359;BME280;37448;51.588;7.248;2023-01-19T17:51:37;100120.19;;;-0.31;93.32
51359;BME280;37448;51.588;7.248;2023-01-19T17:53:39;100115.84;;;-0.33;93.19
51359;BME280;37448;51.588;7.248;2023-01-19T17:55:40;100111.56;;;-0.36;92.71
51359;BME280;37448;51.588;7.248;2023-01-19T17:57:40;100114.13;;;-0.36;93.20
51359;BME280;37448;51.588;7.248;2023-01-19T17:59:40;100120.03;;;-0.40;93.36
51359;BME280;37448;51.588;7.248;2023-01-19T18:01:42;100119.16;;;-0.42;92.63
51359;BME280;37448;51.588;7.248;2023-01-19T18:03:45;100121.66;;;-0.47;92.89
51359;BME280;37448;51.588;7.248;2023-01-19T18:05:55;100118.19;;;-0.50;92.38
51359;BME280;37448;51.588;7.248;2023-01-19T18:07:55;100125.03;;;-0.49;93.19
51359;BME280;37448;51.588;7.248;2023-01-19T18:09:56;100126.72;;;-0.50;92.97
51359;BME280;37448;51.588;7.248;2023-01-19T18:11:56;100121.59;;;-0.50;93.08
51359;BME280;37448;51.588;7.248;2023-01-19T18:13:56;100118.13;;;-0.52;93.09
51359;BME280;37448;51.588;7.248;2023-01-19T18:16:09;100121.59;;;-0.51;93.69
51359;BME280;37448;51.588;7.248;2023-01-19T18:18:09;100120.69;;;-0.53;93.26
51359;BME280;37448;51.588;7.248;2023-01-19T18:20:10;100121.53;;;-0.53;93.44
51359;BME280;37448;51.588;7.248;2023-01-19T18:22:10;100135.28;;;-0.49;93.37
51359;BME280;37448;51.588;7.248;2023-01-19T18:24:11;100138.75;;;-0.47;93.58
51359;BME280;37448;51.588;7.248;2023-01-19T18:26:16;100135.34;;;-0.46;93.61
51359;BME280;37448;51.588;7.248;2023-01-19T18:28:17;100134.53;;;-0.44;93.47
51359;BME280;37448;51.588;7.248;2023-01-19T18:30:18;100131.97;;;-0.42;93.65
51359;BME280;37448;51.588;7.248;2023-01-19T18:32:18;100136.31;;;-0.38;93.39
51359;BME280;37448;51.588;7.248;2023-01-19T18:34:20;100133.75;;;-0.38;93.70
51359;BME280;37448;51.588;7.248;2023-01-19T18:36:20;100137.16;;;-0.39;93.36
51359;BME280;37448;51.588;7.248;2023-01-19T18:38:21;100131.19;;;-0.38;93.48
51359;BME280;37448;51.588;7.248;2023-01-19T18:40:22;100138.09;;;-0.34;93.48
51359;BME280;37448;51.588;7.248;2023-01-19T18:42:23;100140.72;;;-0.29;93.19
51359;BME280;37448;51.588;7.248;2023-01-19T18:44:23;100139.91;;;-0.25;93.73
51359;BME280;37448;51.588;7.248;2023-01-19T18:46:24;100145.13;;;-0.22;93.89
51359;BME280;37448;51.588;7.248;2023-01-19T18:48:24;100145.19;;;-0.17;93.71
51359;BME280;37448;51.588;7.248;2023-01-19T18:50:25;100142.66;;;-0.14;93.65
51359;BME280;37448;51.588;7.248;2023-01-19T18:52:25;100148.69;;;-0.10;93.97
51359;BME280;37448;51.588;7.248;2023-01-19T18:54:26;100145.31;;;-0.08;93.77
51359;BME280;37448;51.588;7.248;2023-01-19T18:56:26;100141.13;;;-0.03;94.06
51359;BME280;37448;51.588;7.248;2023-01-19T18:58:28;100143.69;;;-0.01;94.25
51359;BME280;37448;51.588;7.248;2023-01-19T19:00:28;100143.69;;;-0.01;94.31
51359;BME280;37448;51.588;7.248;2023-01-19T19:02:29;100148.00;;;0.02;94.09
51359;BME280;37448;51.588;7.248;2023-01-19T19:04:29;100150.56;;;0.02;93.63
51359;BME280;37448;51.588;7.248;2023-01-19T19:06:29;100145.47;;;0.03;93.55
51359;BME280;37448;51.588;7.248;2023-01-19T19:08:32;100151.47;;;0.04;94.13
51359;BME280;37448;51.588;7.248;2023-01-19T19:10:32;100148.91;;;0.04;93.87
51359;BME280;37448;51.588;7.248;2023-01-19T19:12:33;100149.78;;;0.06;93.48
51359;BME280;37448;51.588;7.248;2023-01-19T19:14:33;100146.38;;;0.07;93.69
51359;BME280;37448;51.588;7.248;2023-01-19T19:16:33;100143.84;;;0.10;93.76
51359;BME280;37448;51.588;7.248;2023-01-19T19:18:34;100145.56;;;0.11;93.95
51359;BME280;37448;51.588;7.248;2023-01-19T19:20:38;100150.72;;;0.12;93.81
51359;BME280;37448;51.588;7.248;2023-01-19T19:22:39;100154.19;;;0.13;93.42
51359;BME280;37448;51.588;7.248;2023-01-19T19:24:39;100149.03;;;0.13;93.03
51359;BME280;37448;51.588;7.248;2023-01-19T19:26:39;100161.03;;;0.14;92.88
51359;BME280;37448;51.588;7.248;2023-01-19T19:28:41;100160.19;;;0.15;92.51
51359;BME280;37448;51.588;7.248;2023-01-19T19:30:41;100161.03;;;0.16;93.02
51359;BME280;37448;51.588;7.248;2023-01-19T19:32:42;100161.91;;;0.18;93.08
51359;BME280;37448;51.588;7.248;2023-01-19T19:34:42;100164.50;;;0.18;93.06
51359;BME280;37448;51.588;7.248;2023-01-19T19:36:42;100163.63;;;0.17;93.09
51359;BME280;37448;51.588;7.248;2023-01-19T19:38:43;100163.63;;;0.17;93.06
51359;BME280;37448;51.588;7.248;2023-01-19T19:40:46;100166.19;;;0.16;93.04
51359;BME280;37448;51.588;7.248;2023-01-19T19:42:46;100161.88;;;0.13;93.04
51359;BME280;37448;51.588;7.248;2023-01-19T19:44:47;100169.53;;;0.11;92.62
51359;BME280;37448;51.588;7.248;2023-01-19T19:46:47;100172.97;;;0.10;93.10
51359;BME280;37448;51.588;7.248;2023-01-19T19:48:48;100166.91;;;0.07;93.09
51359;BME280;37448;51.588;7.248;2023-01-19T19:50:48;100179.75;;;0.07;93.01
51359;BME280;37448;51.588;7.248;2023-01-19T19:52:48;100182.34;;;0.08;93.14
51359;BME280;37448;51.588;7.248;2023-01-19T19:54:49;100177.22;;;0.08;92.90
51359;BME280;37448;51.588;7.248;2023-01-19T19:56:49;100182.34;;;0.10;92.97
51359;BME280;37448;51.588;7.248;2023-01-19T19:58:53;100178.94;;;0.11;93.12
51359;BME280;37448;51.588;7.248;2023-01-19T20:00:54;100186.69;;;0.12;93.22
51359;BME280;37448;51.588;7.248;2023-01-19T20:02:54;100183.28;;;0.13;93.61
51359;BME280;37448;51.588;7.248;2023-01-19T20:04:55;100190.97;;;0.13;93.44
51359;BME280;37448;51.588;7.248;2023-01-19T20:06:57;100183.28;;;0.13;93.31
51359;BME280;37448;51.588;7.248;2023-01-19T20:08:59;100190.97;;;0.13;93.46
51359;BME280;37448;51.588;7.248;2023-01-19T20:11:13;100185.84;;;0.13;93.12
51359;BME280;37448;51.588;7.248;2023-01-19T20:13:14;100185.00;;;0.13;93.04
51359;BME280;37448;51.588;7.248;2023-01-19T20:15:18;100185.88;;;0.15;93.47
51359;BME280;37448;51.588;7.248;2023-01-19T20:17:18;100191.00;;;0.15;93.71
51359;BME280;37448;51.588;7.248;2023-01-19T20:19:19;100194.44;;;0.16;93.69
51359;BME280;37448;51.588;7.248;2023-01-19T20:21:23;100193.50;;;0.12;93.16
51359;BME280;37448;51.588;7.248;2023-01-19T20:23:24;100193.50;;;0.12;93.49
51359;BME280;37448;51.588;7.248;2023-01-19T20:25:24;100195.22;;;0.11;93.72
51359;BME280;37448;51.588;7.248;2023-01-19T20:27:25;100199.53;;;0.12;93.91
51359;BME280;37448;51.588;7.248;2023-01-19T20:29:25;100207.19;;;0.11;93.75
51359;BME280;37448;51.588;7.248;2023-01-19T20:31:28;100202.06;;;0.09;94.22
51359;BME280;37448;51.588;7.248;2023-01-19T20:33:29;100210.59;;;0.10;93.77
51359;BME280;37448;51.588;7.248;2023-01-19T20:35:29;100214.06;;;0.12;94.04
51359;BME280;37448;51.588;7.248;2023-01-19T20:37:30;100214.94;;;0.12;93.95
51359;BME280;37448;51.588;7.248;2023-01-19T20:39:31;100222.66;;;0.14;94.09
51359;BME280;37448;51.588;7.248;2023-01-19T20:41:34;100221.84;;;0.15;93.96
51359;BME280;37448;51.588;7.248;2023-01-19T20:43:36;100218.38;;;0.13;94.23
51359;BME280;37448;51.588;7.248;2023-01-19T20:45:36;100221.00;;;0.16;94.62
51359;BME280;37448;51.588;7.248;2023-01-19T20:47:37;100223.56;;;0.16;94.54
51359;BME280;37448;51.588;7.248;2023-01-19T20:49:37;100228.69;;;0.16;94.38
51359;BME280;37448;51.588;7.248;2023-01-19T20:51:37;100225.28;;;0.17;94.04
51359;BME280;37448;51.588;7.248;2023-01-19T20:53:42;100235.56;;;0.19;94.38
51359;BME280;37448;51.588;7.248;2023-01-19T20:55:42;100237.28;;;0.18;94.43
51359;BME280;37448;51.588;7.248;2023-01-19T20:57:43;100231.25;;;0.18;94.30
51359;BME280;37448;51.588;7.248;2023-01-19T20:59:43;100240.69;;;0.19;94.86
51359;BME280;37448;51.588;7.248;2023-01-19T21:01:45;100236.44;;;0.19;94.44
51359;BME280;37448;51.588;7.248;2023-01-19T21:03:47;100243.31;;;0.20;94.62
51359;BME280;37448;51.588;7.248;2023-01-19T21:05:48;100245.88;;;0.20;94.73
51359;BME280;37448;51.588;7.248;2023-01-19T21:07:49;100238.16;;;0.20;94.89
51359;BME280;37448;51.588;7.248;2023-01-19T21:09:49;100256.16;;;0.20;95.04
51359;BME280;37448;51.588;7.248;2023-01-19T21:11:50;100253.56;;;0.22;94.82
51359;BME280;37448;51.588;7.248;2023-01-19T21:13:50;100249.28;;;0.19;94.42
51359;BME280;37448;51.588;7.248;2023-01-19T21:15:54;100263.84;;;0.20;94.57
51359;BME280;37448;51.588;7.248;2023-01-19T21:17:54;100266.41;;;0.20;94.74
51359;BME280;37448;51.588;7.248;2023-01-19T21:19:56;100272.44;;;0.22;94.64
51359;BME280;37448;51.588;7.248;2023-01-19T21:21:56;100272.44;;;0.22;94.77
51359;BME280;37448;51.588;7.248;2023-01-19T21:23:59;100278.47;;;0.24;95.00
51359;BME280;37448;51.588;7.248;2023-01-19T21:26:00;100287.00;;;0.23;94.42
51359;BME280;37448;51.588;7.248;2023-01-19T21:28:00;100288.72;;;0.24;94.70
51359;BME280;37448;51.588;7.248;2023-01-19T21:30:02;100293.88;;;0.24;94.69
51359;BME280;37448;51.588;7.248;2023-01-19T21:32:02;100292.19;;;0.26;94.84
51359;BME280;37448;51.588;7.248;2023-01-19T21:34:03;100292.16;;;0.23;94.29
51359;BME280;37448;51.588;7.248;2023-01-19T21:36:03;100293.88;;;0.24;94.21
51359;BME280;37448;51.588;7.248;2023-01-19T21:38:04;100294.69;;;0.22;94.41
51359;BME280;37448;51.588;7.248;2023-01-19T21:40:06;100304.16;;;0.24;94.39
51359;BME280;37448;51.588;7.248;2023-01-19T21:42:06;100299.84;;;0.23;94.79
51359;BME280;37448;51.588;7.248;2023-01-19T21:44:09;100307.59;;;0.25;94.85
51359;BME280;37448;51.588;7.248;2023-01-19T21:46:12;100305.91;;;0.27;94.88
51359;BME280;37448;51.588;7.248;2023-01-19T21:48:14;100304.19;;;0.27;95.07
51359;BME280;37448;51.588;7.248;2023-01-19T21:50:14;100302.47;;;0.26;94.79
51359;BME280;37448;51.588;7.248;2023-01-19T21:52:15;100308.44;;;0.25;94.98
51359;BME280;37448;51.588;7.248;2023-01-19T21:54:15;100312.69;;;0.23;94.78
51359;BME280;37448;51.588;7.248;2023-01-19T21:56:16;100310.16;;;0.25;94.68
51359;BME280;37448;51.588;7.248;2023-01-19T21:58:17;100312.72;;;0.25;94.64
51359;BME280;37448;51.588;7.248;2023-01-19T22:00:17;100306.72;;;0.24;94.90
51359;BME280;37448;51.588;7.248;2023-01-19T22:02:18;100313.53;;;0.24;94.80
51359;BME280;37448;51.588;7.248;2023-01-19T22:04:19;100316.16;;;0.25;94.58
51359;BME280;37448;51.588;7.248;2023-01-19T22:06:20;100319.56;;;0.24;94.60
51359;BME280;37448;51.588;7.248;2023-01-19T22:08:22;100313.53;;;0.24;94.54
51359;BME280;37448;51.588;7.248;2023-01-19T22:10:22;100323.00;;;0.26;94.61
51359;BME280;37448;51.588;7.248;2023-01-19T22:12:23;100323.84;;;0.25;94.61
51359;BME280;37448;51.588;7.248;2023-01-19T22:14:23;100328.16;;;0.26;94.91
51359;BME280;37448;51.588;7.248;2023-01-19T22:16:24;100332.44;;;0.27;94.84
51359;BME280;37448;51.588;7.248;2023-01-19T22:18:24;100331.59;;;0.28;95.20
51359;BME280;37448;51.588;7.248;2023-01-19T22:20:25;100332.44;;;0.27;94.85
51359;BME280;37448;51.588;7.248;2023-01-19T22:22:25;100328.16;;;0.26;94.88
51359;BME280;37448;51.588;7.248;2023-01-19T22:24:25;100325.59;;;0.26;94.68
51359;BME280;37448;51.588;7.248;2023-01-19T22:26:27;100330.75;;;0.28;94.78
51359;BME280;37448;51.588;7.248;2023-01-19T22:28:28;100335.00;;;0.27;94.72
51359;BME280;37448;51.588;7.248;2023-01-19T22:30:28;100333.28;;;0.26;94.47
51359;BME280;37448;51.588;7.248;2023-01-19T22:32:28;100342.72;;;0.27;94.59
51359;BME280;37448;51.588;7.248;2023-01-19T22:34:30;100345.31;;;0.29;94.74
51359;BME280;37448;51.588;7.248;2023-01-19T22:36:31;100342.75;;;0.29;94.69
51359;BME280;37448;51.588;7.248;2023-01-19T22:38:34;100347.00;;;0.27;94.45
51359;BME280;37448;51.588;7.248;2023-01-19T22:40:34;100346.13;;;0.26;94.38
51359;BME280;37448;51.588;7.248;2023-01-19T22:42:35;100340.16;;;0.27;94.40
51359;BME280;37448;51.588;7.248;2023-01-19T22:44:35;100341.00;;;0.26;94.28
51359;BME280;37448;51.588;7.248;2023-01-19T22:46:36;100343.56;;;0.26;94.34
51359;BME280;37448;51.588;7.248;2023-01-19T22:48:36;100349.53;;;0.25;94.30
51359;BME280;37448;51.588;7.248;2023-01-19T22:50:37;100344.41;;;0.25;94.57
51359;BME280;37448;51.588;7.248;2023-01-19T22:52:37;100337.56;;;0.26;94.70
51359;BME280;37448;51.588;7.248;2023-01-19T22:54:37;100346.97;;;0.25;94.47
51359;BME280;37448;51.588;7.248;2023-01-19T22:56:39;100350.38;;;0.24;94.63
51359;BME280;37448;51.588;7.248;2023-01-19T22:58:40;100353.78;;;0.23;94.67
51359;BME280;37448;51.588;7.248;2023-01-19T23:00:43;100349.50;;;0.24;94.42
51359;BME280;37448;51.588;7.248;2023-01-19T23:02:43;100353.84;;;0.25;94.57
51359;BME280;37448;51.588;7.248;2023-01-19T23:04:43;100354.69;;;0.25;94.89
51359;BME280;37448;51.588;7.248;2023-01-19T23:06:44;100351.22;;;0.23;94.58
51359;BME280;37448;51.588;7.248;2023-01-19T23:08:49;100365.75;;;0.21;93.87
51359;BME280;37448;51.588;7.248;2023-01-19T23:10:50;100363.19;;;0.23;94.26
51359;BME280;37448;51.588;7.248;2023-01-19T23:12:50;100363.19;;;0.23;94.10
51359;BME280;37448;51.588;7.248;2023-01-19T23:14:51;100358.13;;;0.26;94.58
51359;BME280;37448;51.588;7.248;2023-01-19T23:16:51;100358.94;;;0.23;94.29
51359;BME280;37448;51.588;7.248;2023-01-19T23:18:55;100360.66;;;0.24;94.63
51359;BME280;37448;51.588;7.248;2023-01-19T23:21:07;100361.53;;;0.26;94.98
51359;BME280;37448;51.588;7.248;2023-01-19T23:23:08;100370.06;;;0.24;94.52
51359;BME280;37448;51.588;7.248;2023-01-19T23:25:09;100367.53;;;0.25;94.72
51359;BME280;37448;51.588;7.248;2023-01-19T23:27:09;100364.97;;;0.25;94.72
51359;BME280;37448;51.588;7.248;2023-01-19T23:29:14;100372.66;;;0.25;94.98
51359;BME280;37448;51.588;7.248;2023-01-19T23:31:26;100373.53;;;0.26;94.89
51359;BME280;37448;51.588;7.248;2023-01-19T23:33:26;100378.69;;;0.26;94.99
51359;BME280;37448;51.588;7.248;2023-01-19T23:35:27;100378.63;;;0.24;94.46
51359;BME280;37448;51.588;7.248;2023-01-19T23:37:27;100376.94;;;0.25;94.65
51359;BME280;37448;51.588;7.248;2023-01-19T23:39:27;100383.72;;;0.21;94.39
51359;BME280;37448;51.588;7.248;2023-01-19T23:41:29;100380.31;;;0.24;94.54